sensor_id;sensor_type;location;lat;lon;timestamp;temperature;humidity
17565;DHT22;62994;52.126;5.596;2022-10-20T00:01:51;9.80;99.90
17565;DHT22;62994;52.126;5.596;2022-10-20T00:04:26;9.80;99.90
17565;DHT22;62994;52.126;5.596;2022-10-20T00:09:55;9.90;99.90
17565;DHT22;62994;52.126;5.596;2022-10-20T00:12:33;9.90;99.90
17565;DHT22;62994;52.126;5.596;2022-10-20T00:15:11;9.80;99.90
17565;DHT22;62994;52.126;5.596;2022-10-20T00:17:51;9.80;99.90
17565;DHT22;62994;52.126;5.596;2022-10-20T00:20:32;9.70;99.90
17565;DHT22;62994;52.126;5.596;2022-10-20T00:23:00;9.70;99.90
17565;DHT22;62994;52.126;5.596;2022-10-20T00:25:42;9.80;99.90
17565;DHT22;62994;52.126;5.596;2022-10-20T00:28:23;9.80;99.90
17565;DHT22;62994;52.126;5.596;2022-10-20T00:30:55;9.80;99.90
17565;DHT22;62994;52.126;5.596;2022-10-20T00:33:33;9.70;99.90
17565;DHT22;62994;52.126;5.596;2022-10-20T00:36:14;9.70;99.90
17565;DHT22;62994;52.126;5.596;2022-10-20T00:39:01;9.70;99.90
17565;DHT22;62994;52.126;5.596;2022-10-20T00:41:43;9.70;99.90
17565;DHT22;62994;52.126;5.596;2022-10-20T00:47:22;9.70;99.90
17565;DHT22;62994;52.126;5.596;2022-10-20T00:50:02;9.70;99.90
17565;DHT22;62994;52.126;5.596;2022-10-20T00:52:34;9.70;99.90
17565;DHT22;62994;52.126;5.596;2022-10-20T00:58:02;9.70;99.90
17565;DHT22;62994;52.126;5.596;2022-10-20T01:00:38;9.70;99.90
17565;DHT22;62994;52.126;5.596;2022-10-20T01:03:26;9.70;99.90
17565;DHT22;62994;52.126;5.596;2022-10-20T01:06:03;9.70;99.90
17565;DHT22;62994;52.126;5.596;2022-10-20T01:08:35;9.60;99.90
17565;DHT22;62994;52.126;5.596;2022-10-20T01:11:17;9.60;99.90
17565;DHT22;62994;52.126;5.596;2022-10-20T01:13:56;9.50;99.90
17565;DHT22;62994;52.126;5.596;2022-10-20T01:16:42;9.70;99.90
17565;DHT22;62994;52.126;5.596;2022-10-20T01:19:38;9.70;99.90
17565;DHT22;62994;52.126;5.596;2022-10-20T01:22:34;9.70;99.90
17565;DHT22;62994;52.126;5.596;2022-10-20T01:25:15;9.60;99.90
17565;DHT22;62994;52.126;5.596;2022-10-20T01:27:51;9.60;99.90
17565;DHT22;62994;52.126;5.596;2022-10-20T01:30:24;9.60;99.90
17565;DHT22;62994;52.126;5.596;2022-10-20T01:33:10;9.50;99.90
17565;DHT22;62994;52.126;5.596;2022-10-20T01:35:58;9.50;99.90
17565;DHT22;62994;52.126;5.596;2022-10-20T01:38:38;9.50;99.90
17565;DHT22;62994;52.126;5.596;2022-10-20T01:41:20;9.50;99.90
17565;DHT22;62994;52.126;5.596;2022-10-20T01:43:59;9.50;99.90
17565;DHT22;62994;52.126;5.596;2022-10-20T01:46:31;9.50;99.90
17565;DHT22;62994;52.126;5.596;2022-10-20T01:49:09;9.40;99.90
17565;DHT22;62994;52.126;5.596;2022-10-20T01:51:44;9.40;99.90
17565;DHT22;62994;52.126;5.596;2022-10-20T01:54:30;9.40;99.90
17565;DHT22;62994;52.126;5.596;2022-10-20T01:57:20;9.40;99.90
17565;DHT22;62994;52.126;5.596;2022-10-20T02:00:05;9.40;99.90
17565;DHT22;62994;52.126;5.596;2022-10-20T02:02:57;9.40;99.90
17565;DHT22;62994;52.126;5.596;2022-10-20T02:05:49;9.40;99.90
17565;DHT22;62994;52.126;5.596;2022-10-20T02:08:36;9.40;99.90
17565;DHT22;62994;52.126;5.596;2022-10-20T02:11:13;9.40;99.90
17565;DHT22;62994;52.126;5.596;2022-10-20T02:13:51;9.40;99.90
17565;DHT22;62994;52.126;5.596;2022-10-20T02:16:27;9.30;99.90
17565;DHT22;62994;52.126;5.596;2022-10-20T02:19:02;9.40;99.90
17565;DHT22;62994;52.126;5.596;2022-10-20T02:21:30;9.40;99.90
17565;DHT22;62994;52.126;5.596;2022-10-20T02:24:08;9.40;99.90
17565;DHT22;62994;52.126;5.596;2022-10-20T02:26:39;9.40;99.90
17565;DHT22;62994;52.126;5.596;2022-10-20T02:29:16;9.40;99.90
17565;DHT22;62994;52.126;5.596;2022-10-20T02:31:49;9.40;99.90
17565;DHT22;62994;52.126;5.596;2022-10-20T02:34:31;9.40;99.90
17565;DHT22;62994;52.126;5.596;2022-10-20T02:37:09;9.40;99.90
17565;DHT22;62994;52.126;5.596;2022-10-20T02:39:46;9.40;99.90
17565;DHT22;62994;52.126;5.596;2022-10-20T02:42:18;9.40;99.90
17565;DHT22;62994;52.126;5.596;2022-10-20T02:44:52;9.50;99.90
17565;DHT22;62994;52.126;5.596;2022-10-20T02:47:24;9.60;99.90
17565;DHT22;62994;52.126;5.596;2022-10-20T02:49:56;9.50;99.90
17565;DHT22;62994;52.126;5.596;2022-10-20T02:52:33;9.50;99.90
17565;DHT22;62994;52.126;5.596;2022-10-20T02:55:05;9.40;99.90
17565;DHT22;62994;52.126;5.596;2022-10-20T02:57:55;9.40;99.90
17565;DHT22;62994;52.126;5.596;2022-10-20T03:00:54;9.40;99.90
17565;DHT22;62994;52.126;5.596;2022-10-20T03:03:37;9.30;99.90
17565;DHT22;62994;52.126;5.596;2022-10-20T03:06:16;9.30;99.90
17565;DHT22;62994;52.126;5.596;2022-10-20T03:09:00;9.30;99.90
17565;DHT22;62994;52.126;5.596;2022-10-20T03:11:37;9.30;99.90
17565;DHT22;62994;52.126;5.596;2022-10-20T03:14:18;9.30;99.90
17565;DHT22;62994;52.126;5.596;2022-10-20T03:16:46;9.30;99.90
17565;DHT22;62994;52.126;5.596;2022-10-20T03:19:20;9.20;99.90
17565;DHT22;62994;52.126;5.596;2022-10-20T03:21:54;9.30;99.90
17565;DHT22;62994;52.126;5.596;2022-10-20T03:24:25;9.30;99.90
17565;DHT22;62994;52.126;5.596;2022-10-20T03:26:59;9.20;99.90
17565;DHT22;62994;52.126;5.596;2022-10-20T03:29:37;9.20;99.90
17565;DHT22;62994;52.126;5.596;2022-10-20T03:32:12;9.20;99.90
17565;DHT22;62994;52.126;5.596;2022-10-20T03:34:44;9.20;99.90
17565;DHT22;62994;52.126;5.596;2022-10-20T03:37:14;9.20;99.90
17565;DHT22;62994;52.126;5.596;2022-10-20T03:39:47;9.20;99.90
17565;DHT22;62994;52.126;5.596;2022-10-20T03:45:07;9.20;99.90
17565;DHT22;62994;52.126;5.596;2022-10-20T03:47:42;9.10;99.90
17565;DHT22;62994;52.126;5.596;2022-10-20T03:50:18;9.10;99.90
17565;DHT22;62994;52.126;5.596;2022-10-20T03:52:51;9.10;99.90
17565;DHT22;62994;52.126;5.596;2022-10-20T03:55:21;9.10;99.90
17565;DHT22;62994;52.126;5.596;2022-10-20T03:57:53;9.10;99.90
17565;DHT22;62994;52.126;5.596;2022-10-20T04:00:22;9.10;99.90
17565;DHT22;62994;52.126;5.596;2022-10-20T04:02:59;9.20;99.90
17565;DHT22;62994;52.126;5.596;2022-10-20T04:05:35;9.10;99.90
17565;DHT22;62994;52.126;5.596;2022-10-20T04:08:12;9.20;99.90
17565;DHT22;62994;52.126;5.596;2022-10-20T04:10:56;9.30;99.90
17565;DHT22;62994;52.126;5.596;2022-10-20T04:13:34;9.20;99.90
17565;DHT22;62994;52.126;5.596;2022-10-20T04:16:07;9.20;99.90
17565;DHT22;62994;52.126;5.596;2022-10-20T04:18:36;9.20;99.90
17565;DHT22;62994;52.126;5.596;2022-10-20T04:21:26;9.20;99.90
17565;DHT22;62994;52.126;5.596;2022-10-20T04:24:09;9.20;99.90
17565;DHT22;62994;52.126;5.596;2022-10-20T04:26:52;9.20;99.90
17565;DHT22;62994;52.126;5.596;2022-10-20T04:29:19;9.20;99.90
17565;DHT22;62994;52.126;5.596;2022-10-20T04:31:51;9.20;99.90
17565;DHT22;62994;52.126;5.596;2022-10-20T04:34:39;9.20;99.90
17565;DHT22;62994;52.126;5.596;2022-10-20T04:37:10;9.20;99.90
17565;DHT22;62994;52.126;5.596;2022-10-20T04:39:58;9.30;99.90
17565;DHT22;62994;52.126;5.596;2022-10-20T04:42:29;9.30;99.90
17565;DHT22;62994;52.126;5.596;2022-10-20T04:45:05;9.20;99.90
17565;DHT22;62994;52.126;5.596;2022-10-20T04:50:58;9.30;99.90
17565;DHT22;62994;52.126;5.596;2022-10-20T04:53:32;9.30;99.90
17565;DHT22;62994;52.126;5.596;2022-10-20T04:56:13;9.30;99.90
17565;DHT22;62994;52.126;5.596;2022-10-20T04:58:51;9.30;99.90
17565;DHT22;62994;52.126;5.596;2022-10-20T05:01:22;9.30;99.90
17565;DHT22;62994;52.126;5.596;2022-10-20T05:03:58;9.30;99.90
17565;DHT22;62994;52.126;5.596;2022-10-20T05:06:45;9.30;99.90
17565;DHT22;62994;52.126;5.596;2022-10-20T05:09:21;9.30;99.90
17565;DHT22;62994;52.126;5.596;2022-10-20T05:11:53;9.40;99.90
17565;DHT22;62994;52.126;5.596;2022-10-20T05:14:29;9.40;99.90
17565;DHT22;62994;52.126;5.596;2022-10-20T05:17:24;9.40;99.90
17565;DHT22;62994;52.126;5.596;2022-10-20T05:19:54;9.40;99.90
17565;DHT22;62994;52.126;5.596;2022-10-20T05:22:31;9.50;99.90
17565;DHT22;62994;52.126;5.596;2022-10-20T05:25:05;9.50;99.90
17565;DHT22;62994;52.126;5.596;2022-10-20T05:27:48;9.50;99.90
17565;DHT22;62994;52.126;5.596;2022-10-20T05:30:23;9.60;99.90
17565;DHT22;62994;52.126;5.596;2022-10-20T05:33:01;9.60;99.90
17565;DHT22;62994;52.126;5.596;2022-10-20T05:35:33;9.60;99.90
17565;DHT22;62994;52.126;5.596;2022-10-20T05:41:14;9.60;99.90
17565;DHT22;62994;52.126;5.596;2022-10-20T05:44:00;9.70;99.90
17565;DHT22;62994;52.126;5.596;2022-10-20T05:46:43;9.60;99.90
17565;DHT22;62994;52.126;5.596;2022-10-20T05:49:16;9.70;99.90
17565;DHT22;62994;52.126;5.596;2022-10-20T05:51:47;9.70;99.90
17565;DHT22;62994;52.126;5.596;2022-10-20T05:54:28;9.70;99.90
17565;DHT22;62994;52.126;5.596;2022-10-20T05:57:02;9.70;99.90
17565;DHT22;62994;52.126;5.596;2022-10-20T05:59:39;9.70;99.90
17565;DHT22;62994;52.126;5.596;2022-10-20T06:02:21;9.70;99.90
17565;DHT22;62994;52.126;5.596;2022-10-20T06:04:56;9.70;99.90
17565;DHT22;62994;52.126;5.596;2022-10-20T06:07:40;9.80;99.90
17565;DHT22;62994;52.126;5.596;2022-10-20T06:10:12;9.80;99.90
17565;DHT22;62994;52.126;5.596;2022-10-20T06:12:46;9.80;99.90
17565;DHT22;62994;52.126;5.596;2022-10-20T06:15:18;9.90;99.90
17565;DHT22;62994;52.126;5.596;2022-10-20T06:18:12;9.90;99.90
17565;DHT22;62994;52.126;5.596;2022-10-20T06:20:43;9.90;99.90
17565;DHT22;62994;52.126;5.596;2022-10-20T06:23:16;9.90;99.90
17565;DHT22;62994;52.126;5.596;2022-10-20T06:25:54;9.90;99.90
17565;DHT22;62994;52.126;5.596;2022-10-20T06:28:28;9.90;99.90
17565;DHT22;62994;52.126;5.596;2022-10-20T06:31:09;9.90;99.90
17565;DHT22;62994;52.126;5.596;2022-10-20T06:36:46;9.90;99.90
17565;DHT22;62994;52.126;5.596;2022-10-20T06:39:19;9.80;99.90
17565;DHT22;62994;52.126;5.596;2022-10-20T06:44:34;9.80;99.90
17565;DHT22;62994;52.126;5.596;2022-10-20T06:47:08;9.80;99.90
17565;DHT22;62994;52.126;5.596;2022-10-20T06:49:38;9.90;99.90
17565;DHT22;62994;52.126;5.596;2022-10-20T06:52:19;9.90;99.90
17565;DHT22;62994;52.126;5.596;2022-10-20T06:54:54;9.90;99.90
17565;DHT22;62994;52.126;5.596;2022-10-20T06:57:29;10.00;99.90
17565;DHT22;62994;52.126;5.596;2022-10-20T06:59:58;10.00;99.90
17565;DHT22;62994;52.126;5.596;2022-10-20T07:02:26;10.00;99.90
17565;DHT22;62994;52.126;5.596;2022-10-20T07:04:58;10.00;99.90
17565;DHT22;62994;52.126;5.596;2022-10-20T07:07:30;10.00;99.90
17565;DHT22;62994;52.126;5.596;2022-10-20T07:10:02;10.10;99.90
17565;DHT22;62994;52.126;5.596;2022-10-20T07:12:37;10.10;99.90
17565;DHT22;62994;52.126;5.596;2022-10-20T07:15:07;10.10;99.90
17565;DHT22;62994;52.126;5.596;2022-10-20T07:17:36;10.10;99.90
17565;DHT22;62994;52.126;5.596;2022-10-20T07:20:09;10.10;99.90
17565;DHT22;62994;52.126;5.596;2022-10-20T07:22:54;10.20;99.90
17565;DHT22;62994;52.126;5.596;2022-10-20T07:25:30;10.20;99.90
17565;DHT22;62994;52.126;5.596;2022-10-20T07:28:00;10.20;99.90
17565;DHT22;62994;52.126;5.596;2022-10-20T07:30:40;10.20;99.90
17565;DHT22;62994;52.126;5.596;2022-10-20T07:33:14;10.30;99.90
17565;DHT22;62994;52.126;5.596;2022-10-20T07:35:46;10.30;99.90
17565;DHT22;62994;52.126;5.596;2022-10-20T07:38:19;10.40;99.90
17565;DHT22;62994;52.126;5.596;2022-10-20T07:40:55;10.50;99.90
17565;DHT22;62994;52.126;5.596;2022-10-20T07:43:34;10.70;99.90
17565;DHT22;62994;52.126;5.596;2022-10-20T07:46:09;10.70;99.90
17565;DHT22;62994;52.126;5.596;2022-10-20T07:48:55;10.60;99.90
17565;DHT22;62994;52.126;5.596;2022-10-20T07:51:31;10.60;99.90
17565;DHT22;62994;52.126;5.596;2022-10-20T07:54:07;10.60;99.90
17565;DHT22;62994;52.126;5.596;2022-10-20T07:56:54;10.60;99.90
17565;DHT22;62994;52.126;5.596;2022-10-20T07:59:24;10.60;99.90
17565;DHT22;62994;52.126;5.596;2022-10-20T08:04:45;10.70;99.90
17565;DHT22;62994;52.126;5.596;2022-10-20T08:07:17;10.70;99.90
17565;DHT22;62994;52.126;5.596;2022-10-20T08:10:00;10.80;99.90
17565;DHT22;62994;52.126;5.596;2022-10-20T08:12:29;10.80;99.90
17565;DHT22;62994;52.126;5.596;2022-10-20T08:15:05;10.90;99.90
17565;DHT22;62994;52.126;5.596;2022-10-20T08:17:34;10.90;99.90
17565;DHT22;62994;52.126;5.596;2022-10-20T08:20:07;11.00;99.90
17565;DHT22;62994;52.126;5.596;2022-10-20T08:22:41;11.20;99.90
17565;DHT22;62994;52.126;5.596;2022-10-20T08:25:13;11.30;99.90
17565;DHT22;62994;52.126;5.596;2022-10-20T08:27:49;11.40;99.90
17565;DHT22;62994;52.126;5.596;2022-10-20T08:30:24;11.40;99.90
17565;DHT22;62994;52.126;5.596;2022-10-20T08:33:03;11.40;99.90
17565;DHT22;62994;52.126;5.596;2022-10-20T08:35:38;11.50;99.90
17565;DHT22;62994;52.126;5.596;2022-10-20T08:38:13;11.50;99.90
17565;DHT22;62994;52.126;5.596;2022-10-20T08:40:46;11.60;99.90
17565;DHT22;62994;52.126;5.596;2022-10-20T08:43:35;11.70;99.90
17565;DHT22;62994;52.126;5.596;2022-10-20T08:46:11;11.80;99.90
17565;DHT22;62994;52.126;5.596;2022-10-20T08:48:45;11.80;99.90
17565;DHT22;62994;52.126;5.596;2022-10-20T08:51:20;11.90;99.90
17565;DHT22;62994;52.126;5.596;2022-10-20T08:53:54;11.90;99.90
17565;DHT22;62994;52.126;5.596;2022-10-20T08:56:38;11.90;99.90
17565;DHT22;62994;52.126;5.596;2022-10-20T08:59:32;12.00;99.90
17565;DHT22;62994;52.126;5.596;2022-10-20T09:02:07;12.10;99.90
17565;DHT22;62994;52.126;5.596;2022-10-20T09:04:54;12.10;99.90
17565;DHT22;62994;52.126;5.596;2022-10-20T09:07:30;12.20;99.90
17565;DHT22;62994;52.126;5.596;2022-10-20T09:10:12;12.30;99.90
17565;DHT22;62994;52.126;5.596;2022-10-20T09:12:45;12.30;99.90
17565;DHT22;62994;52.126;5.596;2022-10-20T09:15:25;12.40;99.90
17565;DHT22;62994;52.126;5.596;2022-10-20T09:18:01;12.40;99.90
17565;DHT22;62994;52.126;5.596;2022-10-20T09:20:39;12.50;99.90
17565;DHT22;62994;52.126;5.596;2022-10-20T09:23:14;12.60;99.90
17565;DHT22;62994;52.126;5.596;2022-10-20T09:25:49;12.60;99.90
17565;DHT22;62994;52.126;5.596;2022-10-20T09:28:23;12.60;99.90
17565;DHT22;62994;52.126;5.596;2022-10-20T09:31:02;12.70;99.90
17565;DHT22;62994;52.126;5.596;2022-10-20T09:33:40;12.70;99.90
17565;DHT22;62994;52.126;5.596;2022-10-20T09:36:13;12.80;99.90
17565;DHT22;62994;52.126;5.596;2022-10-20T09:38:48;12.80;99.90
17565;DHT22;62994;52.126;5.596;2022-10-20T09:41:22;12.80;99.90
17565;DHT22;62994;52.126;5.596;2022-10-20T09:43:52;12.90;99.90
17565;DHT22;62994;52.126;5.596;2022-10-20T09:46:24;12.90;99.90
17565;DHT22;62994;52.126;5.596;2022-10-20T09:48:58;12.90;99.90
17565;DHT22;62994;52.126;5.596;2022-10-20T09:51:32;13.00;99.90
17565;DHT22;62994;52.126;5.596;2022-10-20T09:54:14;13.10;99.90
17565;DHT22;62994;52.126;5.596;2022-10-20T09:56:44;13.10;99.90
17565;DHT22;62994;52.126;5.596;2022-10-20T09:59:20;13.10;99.90
17565;DHT22;62994;52.126;5.596;2022-10-20T10:01:58;13.20;99.90
17565;DHT22;62994;52.126;5.596;2022-10-20T10:04:35;13.20;99.90
17565;DHT22;62994;52.126;5.596;2022-10-20T10:07:28;13.20;99.90
17565;DHT22;62994;52.126;5.596;2022-10-20T10:10:22;13.30;99.90
17565;DHT22;62994;52.126;5.596;2022-10-20T10:12:59;13.30;99.90
17565;DHT22;62994;52.126;5.596;2022-10-20T10:15:39;13.30;99.90
17565;DHT22;62994;52.126;5.596;2022-10-20T10:18:31;13.40;99.90
17565;DHT22;62994;52.126;5.596;2022-10-20T10:21:03;13.40;99.90
17565;DHT22;62994;52.126;5.596;2022-10-20T10:23:35;13.40;99.90
17565;DHT22;62994;52.126;5.596;2022-10-20T10:26:44;13.50;99.90
17565;DHT22;62994;52.126;5.596;2022-10-20T10:29:23;13.50;99.90
17565;DHT22;62994;52.126;5.596;2022-10-20T10:32:03;13.50;99.90
17565;DHT22;62994;52.126;5.596;2022-10-20T10:34:55;13.50;99.90
17565;DHT22;62994;52.126;5.596;2022-10-20T10:37:28;13.50;99.90
17565;DHT22;62994;52.126;5.596;2022-10-20T10:40:20;13.50;99.90
17565;DHT22;62994;52.126;5.596;2022-10-20T10:43:08;13.60;99.90
17565;DHT22;62994;52.126;5.596;2022-10-20T10:45:57;13.60;99.90
17565;DHT22;62994;52.126;5.596;2022-10-20T10:49:00;13.70;99.90
17565;DHT22;62994;52.126;5.596;2022-10-20T10:51:47;13.70;99.90
17565;DHT22;62994;52.126;5.596;2022-10-20T10:54:41;13.70;99.90
17565;DHT22;62994;52.126;5.596;2022-10-20T10:57:35;13.70;99.90
17565;DHT22;62994;52.126;5.596;2022-10-20T11:00:18;13.70;99.90
17565;DHT22;62994;52.126;5.596;2022-10-20T11:03:20;13.80;99.90
17565;DHT22;62994;52.126;5.596;2022-10-20T11:06:10;13.80;99.90
17565;DHT22;62994;52.126;5.596;2022-10-20T11:08:56;13.80;99.90
17565;DHT22;62994;52.126;5.596;2022-10-20T11:11:55;13.80;99.90
17565;DHT22;62994;52.126;5.596;2022-10-20T11:14:34;13.80;99.90
17565;DHT22;62994;52.126;5.596;2022-10-20T11:17:18;13.80;99.90
17565;DHT22;62994;52.126;5.596;2022-10-20T11:20:17;13.80;99.90
17565;DHT22;62994;52.126;5.596;2022-10-20T11:22:58;13.80;99.90
17565;DHT22;62994;52.126;5.596;2022-10-20T11:25:40;13.80;99.90
17565;DHT22;62994;52.126;5.596;2022-10-20T11:28:30;13.70;99.90
17565;DHT22;62994;52.126;5.596;2022-10-20T11:31:18;13.80;99.90
17565;DHT22;62994;52.126;5.596;2022-10-20T11:33:51;13.80;99.90
17565;DHT22;62994;52.126;5.596;2022-10-20T11:36:24;13.80;99.90
17565;DHT22;62994;52.126;5.596;2022-10-20T11:38:55;13.70;99.90
17565;DHT22;62994;52.126;5.596;2022-10-20T11:41:37;13.80;99.90
17565;DHT22;62994;52.126;5.596;2022-10-20T11:44:12;13.80;99.90
17565;DHT22;62994;52.126;5.596;2022-10-20T11:46:51;13.80;99.90
17565;DHT22;62994;52.126;5.596;2022-10-20T11:49:23;13.80;99.90
17565;DHT22;62994;52.126;5.596;2022-10-20T11:52:21;13.90;99.90
17565;DHT22;62994;52.126;5.596;2022-10-20T11:55:11;13.90;99.90
17565;DHT22;62994;52.126;5.596;2022-10-20T11:57:58;13.90;99.90
17565;DHT22;62994;52.126;5.596;2022-10-20T12:00:46;13.80;99.90
17565;DHT22;62994;52.126;5.596;2022-10-20T12:03:48;13.80;99.90
17565;DHT22;62994;52.126;5.596;2022-10-20T12:06:54;13.80;99.90
17565;DHT22;62994;52.126;5.596;2022-10-20T12:12:39;13.80;99.90
17565;DHT22;62994;52.126;5.596;2022-10-20T12:15:20;13.80;99.90
17565;DHT22;62994;52.126;5.596;2022-10-20T12:17:52;13.80;99.90
17565;DHT22;62994;52.126;5.596;2022-10-20T12:23:56;13.80;99.90
17565;DHT22;62994;52.126;5.596;2022-10-20T12:27:03;13.90;99.90
17565;DHT22;62994;52.126;5.596;2022-10-20T12:29:49;13.90;99.90
17565;DHT22;62994;52.126;5.596;2022-10-20T12:32:35;13.80;99.90
17565;DHT22;62994;52.126;5.596;2022-10-20T12:38:21;13.90;99.90
17565;DHT22;62994;52.126;5.596;2022-10-20T12:40:58;13.90;99.90
17565;DHT22;62994;52.126;5.596;2022-10-20T12:43:57;13.90;99.90
17565;DHT22;62994;52.126;5.596;2022-10-20T12:46:27;13.90;99.90
17565;DHT22;62994;52.126;5.596;2022-10-20T12:51:53;14.00;99.90
17565;DHT22;62994;52.126;5.596;2022-10-20T12:54:25;14.00;99.90
17565;DHT22;62994;52.126;5.596;2022-10-20T12:56:58;14.10;99.90
17565;DHT22;62994;52.126;5.596;2022-10-20T12:59:37;14.10;99.90
17565;DHT22;62994;52.126;5.596;2022-10-20T13:02:50;14.10;99.90
17565;DHT22;62994;52.126;5.596;2022-10-20T13:05:40;14.10;99.90
17565;DHT22;62994;52.126;5.596;2022-10-20T13:08:24;14.10;99.90
17565;DHT22;62994;52.126;5.596;2022-10-20T13:11:10;14.10;99.90
17565;DHT22;62994;52.126;5.596;2022-10-20T13:13:58;14.10;99.90
17565;DHT22;62994;52.126;5.596;2022-10-20T13:16:33;14.10;99.90
17565;DHT22;62994;52.126;5.596;2022-10-20T13:19:23;14.10;99.90
17565;DHT22;62994;52.126;5.596;2022-10-20T13:21:54;14.20;99.90
17565;DHT22;62994;52.126;5.596;2022-10-20T13:24:30;14.20;99.90
17565;DHT22;62994;52.126;5.596;2022-10-20T13:27:10;14.20;99.90
17565;DHT22;62994;52.126;5.596;2022-10-20T13:29:46;14.20;99.90
17565;DHT22;62994;52.126;5.596;2022-10-20T13:32:17;14.20;99.90
17565;DHT22;62994;52.126;5.596;2022-10-20T13:34:57;14.30;99.90
17565;DHT22;62994;52.126;5.596;2022-10-20T13:37:47;14.30;99.90
17565;DHT22;62994;52.126;5.596;2022-10-20T13:40:34;14.40;99.90
17565;DHT22;62994;52.126;5.596;2022-10-20T13:43:25;14.40;99.90
17565;DHT22;62994;52.126;5.596;2022-10-20T13:49:31;14.50;99.90
17565;DHT22;62994;52.126;5.596;2022-10-20T13:52:13;14.70;99.90
17565;DHT22;62994;52.126;5.596;2022-10-20T13:54:46;14.80;99.90
17565;DHT22;62994;52.126;5.596;2022-10-20T13:57:28;14.90;99.90
17565;DHT22;62994;52.126;5.596;2022-10-20T14:00:25;15.00;99.90
17565;DHT22;62994;52.126;5.596;2022-10-20T14:03:13;15.20;99.90
17565;DHT22;62994;52.126;5.596;2022-10-20T14:05:46;15.20;99.90
17565;DHT22;62994;52.126;5.596;2022-10-20T14:08:27;15.30;99.90
17565;DHT22;62994;52.126;5.596;2022-10-20T14:11:09;15.30;99.90
17565;DHT22;62994;52.126;5.596;2022-10-20T14:13:45;15.40;99.90
17565;DHT22;62994;52.126;5.596;2022-10-20T14:16:23;15.40;99.90
17565;DHT22;62994;52.126;5.596;2022-10-20T14:19:00;15.40;99.90
17565;DHT22;62994;52.126;5.596;2022-10-20T14:21:41;15.40;99.90
17565;DHT22;62994;52.126;5.596;2022-10-20T14:24:25;15.40;99.90
17565;DHT22;62994;52.126;5.596;2022-10-20T14:26:55;15.50;99.90
17565;DHT22;62994;52.126;5.596;2022-10-20T14:29:30;15.50;99.90
17565;DHT22;62994;52.126;5.596;2022-10-20T14:32:16;15.50;99.90
17565;DHT22;62994;52.126;5.596;2022-10-20T14:35:01;15.50;99.90
17565;DHT22;62994;52.126;5.596;2022-10-20T14:37:34;15.60;99.90
17565;DHT22;62994;52.126;5.596;2022-10-20T14:40:18;15.60;99.90
17565;DHT22;62994;52.126;5.596;2022-10-20T14:45:37;15.60;99.90
17565;DHT22;62994;52.126;5.596;2022-10-20T14:48:14;15.60;99.90
17565;DHT22;62994;52.126;5.596;2022-10-20T14:50:53;15.60;99.90
17565;DHT22;62994;52.126;5.596;2022-10-20T14:53:32;15.70;99.90
17565;DHT22;62994;52.126;5.596;2022-10-20T14:56:22;15.70;99.90
17565;DHT22;62994;52.126;5.596;2022-10-20T14:58:56;15.70;99.90
17565;DHT22;62994;52.126;5.596;2022-10-20T15:01:32;15.80;99.90
17565;DHT22;62994;52.126;5.596;2022-10-20T15:04:16;15.80;99.90
17565;DHT22;62994;52.126;5.596;2022-10-20T15:07:11;15.80;99.90
17565;DHT22;62994;52.126;5.596;2022-10-20T15:10:04;15.80;99.90
17565;DHT22;62994;52.126;5.596;2022-10-20T15:12:47;15.90;99.90
17565;DHT22;62994;52.126;5.596;2022-10-20T15:15:23;15.90;99.90
17565;DHT22;62994;52.126;5.596;2022-10-20T15:18:20;15.90;99.90
17565;DHT22;62994;52.126;5.596;2022-10-20T15:20:57;15.90;99.90
17565;DHT22;62994;52.126;5.596;2022-10-20T15:23:30;15.90;99.90
17565;DHT22;62994;52.126;5.596;2022-10-20T15:26:11;15.90;99.90
17565;DHT22;62994;52.126;5.596;2022-10-20T15:28:44;16.00;99.90
17565;DHT22;62994;52.126;5.596;2022-10-20T15:31:32;16.00;99.90
17565;DHT22;62994;52.126;5.596;2022-10-20T15:34:08;16.00;99.90
17565;DHT22;62994;52.126;5.596;2022-10-20T15:36:42;16.00;99.90
17565;DHT22;62994;52.126;5.596;2022-10-20T15:39:27;16.00;99.90
17565;DHT22;62994;52.126;5.596;2022-10-20T15:41:58;16.00;99.90
17565;DHT22;62994;52.126;5.596;2022-10-20T15:44:37;16.00;99.90
17565;DHT22;62994;52.126;5.596;2022-10-20T15:47:07;16.10;99.90
17565;DHT22;62994;52.126;5.596;2022-10-20T15:49:43;16.00;99.90
17565;DHT22;62994;52.126;5.596;2022-10-20T15:52:12;16.10;99.90
17565;DHT22;62994;52.126;5.596;2022-10-20T15:54:47;16.00;99.90
17565;DHT22;62994;52.126;5.596;2022-10-20T15:57:25;16.00;99.90
17565;DHT22;62994;52.126;5.596;2022-10-20T15:59:55;16.00;99.90
17565;DHT22;62994;52.126;5.596;2022-10-20T16:02:31;16.00;99.90
17565;DHT22;62994;52.126;5.596;2022-10-20T16:05:16;16.00;99.90
17565;DHT22;62994;52.126;5.596;2022-10-20T16:07:58;16.00;99.90
17565;DHT22;62994;52.126;5.596;2022-10-20T16:10:41;15.90;99.90
17565;DHT22;62994;52.126;5.596;2022-10-20T16:13:26;15.90;99.90
17565;DHT22;62994;52.126;5.596;2022-10-20T16:16:03;15.90;99.90
17565;DHT22;62994;52.126;5.596;2022-10-20T16:18:46;15.80;99.90
17565;DHT22;62994;52.126;5.596;2022-10-20T16:21:21;15.70;99.90
17565;DHT22;62994;52.126;5.596;2022-10-20T16:24:03;15.70;99.90
17565;DHT22;62994;52.126;5.596;2022-10-20T16:26:38;15.70;99.90
17565;DHT22;62994;52.126;5.596;2022-10-20T16:29:46;15.60;99.90
17565;DHT22;62994;52.126;5.596;2022-10-20T16:32:19;15.60;99.90
17565;DHT22;62994;52.126;5.596;2022-10-20T16:34:54;15.60;99.90
17565;DHT22;62994;52.126;5.596;2022-10-20T16:37:26;15.60;99.90
17565;DHT22;62994;52.126;5.596;2022-10-20T16:39:55;15.50;99.90
17565;DHT22;62994;52.126;5.596;2022-10-20T16:42:27;15.50;99.90
17565;DHT22;62994;52.126;5.596;2022-10-20T16:44:59;15.50;99.90
17565;DHT22;62994;52.126;5.596;2022-10-20T16:47:28;15.50;99.90
17565;DHT22;62994;52.126;5.596;2022-10-20T16:50:00;15.50;99.90
17565;DHT22;62994;52.126;5.596;2022-10-20T16:52:31;15.50;99.90
17565;DHT22;62994;52.126;5.596;2022-10-20T16:55:06;15.50;99.90
17565;DHT22;62994;52.126;5.596;2022-10-20T16:57:36;15.40;99.90
17565;DHT22;62994;52.126;5.596;2022-10-20T17:00:16;15.50;99.90
17565;DHT22;62994;52.126;5.596;2022-10-20T17:02:46;15.40;99.90
17565;DHT22;62994;52.126;5.596;2022-10-20T17:05:22;15.40;99.90
17565;DHT22;62994;52.126;5.596;2022-10-20T17:07:56;15.40;99.90
17565;DHT22;62994;52.126;5.596;2022-10-20T17:10:32;15.40;99.90
17565;DHT22;62994;52.126;5.596;2022-10-20T17:13:05;15.30;99.90
17565;DHT22;62994;52.126;5.596;2022-10-20T17:15:46;15.30;99.90
17565;DHT22;62994;52.126;5.596;2022-10-20T17:18:36;15.30;99.90
17565;DHT22;62994;52.126;5.596;2022-10-20T17:21:09;15.30;99.90
17565;DHT22;62994;52.126;5.596;2022-10-20T17:23:43;15.20;99.90
17565;DHT22;62994;52.126;5.596;2022-10-20T17:26:20;15.20;99.90
17565;DHT22;62994;52.126;5.596;2022-10-20T17:28:53;15.20;99.90
17565;DHT22;62994;52.126;5.596;2022-10-20T17:31:27;15.10;99.90
17565;DHT22;62994;52.126;5.596;2022-10-20T17:34:00;15.10;99.90
17565;DHT22;62994;52.126;5.596;2022-10-20T17:36:29;15.10;99.90